地図

経路データ

SID SEASON NUMBER BASIN SUBBASIN NAME ISO_TIME NATURE LAT LON WMO_WIND WMO_PRES WMO_AGENCY TRACK_TYPE DIST2LAND LANDFALL IFLAG USA_AGENCY USA_ATCF_ID USA_LAT USA_LON USA_RECORD USA_STATUS USA_WIND USA_PRES USA_SSHS USA_R34_NE USA_R34_SE USA_R34_SW USA_R34_NW USA_R50_NE USA_R50_SE USA_R50_SW USA_R50_NW USA_R64_NE USA_R64_SE USA_R64_SW USA_R64_NW USA_POCI USA_ROCI USA_RMW USA_EYE TOKYO_LAT TOKYO_LON TOKYO_GRADE TOKYO_WIND TOKYO_PRES TOKYO_R50_DIR TOKYO_R50_LONG TOKYO_R50_SHORT TOKYO_R30_DIR TOKYO_R30_LONG TOKYO_R30_SHORT TOKYO_LAND CMA_LAT CMA_LON CMA_CAT CMA_WIND CMA_PRES HKO_LAT HKO_LON HKO_CAT HKO_WIND HKO_PRES NEWDELHI_LAT NEWDELHI_LON NEWDELHI_GRADE NEWDELHI_WIND NEWDELHI_PRES NEWDELHI_CI NEWDELHI_DP NEWDELHI_POCI REUNION_LAT REUNION_LON REUNION_TYPE REUNION_WIND REUNION_PRES REUNION_TNUM REUNION_CI REUNION_RMW REUNION_R34_NE REUNION_R34_SE REUNION_R34_SW REUNION_R34_NW REUNION_R50_NE REUNION_R50_SE REUNION_R50_SW REUNION_R50_NW REUNION_R64_NE REUNION_R64_SE REUNION_R64_SW REUNION_R64_NW BOM_LAT BOM_LON BOM_TYPE BOM_WIND BOM_PRES BOM_TNUM BOM_CI BOM_RMW BOM_R34_NE BOM_R34_SE BOM_R34_SW BOM_R34_NW BOM_R50_NE BOM_R50_SE BOM_R50_SW BOM_R50_NW BOM_R64_NE BOM_R64_SE BOM_R64_SW BOM_R64_NW BOM_ROCI BOM_POCI BOM_EYE BOM_POS_METHOD BOM_PRES_METHOD NADI_LAT NADI_LON NADI_CAT NADI_WIND NADI_PRES WELLINGTON_LAT WELLINGTON_LON WELLINGTON_WIND WELLINGTON_PRES DS824_LAT DS824_LON DS824_STAGE DS824_WIND DS824_PRES TD9636_LAT TD9636_LON TD9636_STAGE TD9636_WIND TD9636_PRES TD9635_LAT TD9635_LON TD9635_WIND TD9635_PRES TD9635_ROCI NEUMANN_LAT NEUMANN_LON NEUMANN_CLASS NEUMANN_WIND NEUMANN_PRES MLC_LAT MLC_LON MLC_CLASS MLC_WIND MLC_PRES USA_GUST BOM_GUST BOM_GUST_PER REUNION_GUST REUNION_GUST_PER USA_SEAHGT USA_SEARAD_NE USA_SEARAD_SE USA_SEARAD_SW USA_SEARAD_NW STORM_SPEED STORM_DIR
1928110S21154 1928 28 SP EA NOT_NAMED 1928-04-18 23:00:00 NR -20.8000 154.300 bom main 408 399 ______O_______ -1 -20.8000 154.300 9 267
1928110S21154 1928 28 SP EA NOT_NAMED 1928-04-19 00:00:00 NR -20.8074 154.137 main 390 354 ______P_______ -1 -20.8074 154.137 9 267
1928110S21154 1928 28 SP EA NOT_NAMED 1928-04-19 03:00:00 NR -20.8290 153.650 main 354 312 ______P_______ -1 -20.8290 153.650 9 267
1928110S21154 1928 28 SP EA NOT_NAMED 1928-04-19 06:00:00 NR -20.8502 153.172 main 305 265 ______P_______ -1 -20.8502 153.172 9 267
1928110S21154 1928 28 SP EA NOT_NAMED 1928-04-19 09:00:00 NR -20.8715 152.707 main 265 235 ______P_______ -1 -20.8715 152.707 9 267
1928110S21154 1928 28 SP EA NOT_NAMED 1928-04-19 12:00:00 NR -20.8940 152.262 main 235 208 ______P_______ -1 -20.8940 152.262 8 267
1928110S21154 1928 28 SP EA NOT_NAMED 1928-04-19 15:00:00 NR -20.9184 151.843 main 202 186 ______P_______ -1 -20.9184 151.843 8 266
1928110S21154 1928 28 SP EA NOT_NAMED 1928-04-19 18:00:00 NR -20.9456 151.457 main 186 161 ______P_______ -1 -20.9456 151.457 7 265
1928110S21154 1928 28 SP EA NOT_NAMED 1928-04-19 21:00:00 NR -20.9767 151.108 main 161 157 ______P_______ -1 -20.9767 151.108 6 264
1928110S21154 1928 28 SP EA NOT_NAMED 1928-04-19 23:00:00 NR -21.0000 150.900 bom main 157 156 ______O_______ -1 -21.0000 150.900 6 263
1928110S21154 1928 28 SP EA NOT_NAMED 1928-04-20 00:00:00 NR -21.0125 150.804 main 156 136 ______P_______ -1 -21.0125 150.804 5 261
1928110S21154 1928 28 SP EA NOT_NAMED 1928-04-20 03:00:00 NR -21.0539 150.546 main 126 108 ______P_______ -1 -21.0539 150.546 4 259
1928110S21154 1928 28 SP EA NOT_NAMED 1928-04-20 06:00:00 NR -21.1014 150.333 main 108 94 ______P_______ -1 -21.1014 150.333 4 254
1928110S21154 1928 28 SP EA NOT_NAMED 1928-04-20 09:00:00 NR -21.1552 150.160 main 94 75 ______P_______ -1 -21.1552 150.160 3 248
1928110S21154 1928 28 SP EA NOT_NAMED 1928-04-20 12:00:00 NR -21.2158 150.024 main 75 61 ______P_______ -1 -21.2158 150.024 3 240
1928110S21154 1928 28 SP EA NOT_NAMED 1928-04-20 15:00:00 NR -21.2834 149.924 main 61 56 ______P_______ -1 -21.2834 149.924 2 228
1928110S21154 1928 28 SP EA NOT_NAMED 1928-04-20 18:00:00 NR -21.3583 149.854 main 56 47 ______P_______ -1 -21.3583 149.854 2 214
1928110S21154 1928 28 SP EA NOT_NAMED 1928-04-20 21:00:00 NR -21.4407 149.813 main 47 42 ______P_______ -1 -21.4407 149.813 2 202
1928110S21154 1928 28 SP EA NOT_NAMED 1928-04-20 23:00:00 NR -21.5000 149.800 1002 bom main 42 42 ______O_______ -1 -21.5000 149.800 1002 4 2 200
1928110S21154 1928 28 SP EA NOT_NAMED 1928-04-21 00:00:00 NR -21.5319 149.782 main 42 41 ______P_______ -1 -21.5319 149.782 2 199
1928110S21154 1928 28 SP EA NOT_NAMED 1928-04-21 03:00:00 NR -21.6346 149.749 main 31 30 ______P_______ -1 -21.6346 149.749 2 190
1928110S21154 1928 28 SP EA NOT_NAMED 1928-04-21 06:00:00 NR -21.7456 149.745 main 30 30 ______P_______ -1 -21.7456 149.745 2 0
1928110S21154 1928 28 SP EA NOT_NAMED 1928-04-21 09:00:00 NR -21.8621 149.768 main 38 30 ______P_______ -1 -21.8621 149.768 2 163
1928110S21154 1928 28 SP EA NOT_NAMED 1928-04-21 12:00:00 NR -21.9816 149.817 main 30 15 ______P_______ -1 -21.9816 149.817 3 154
1928110S21154 1928 28 SP EA NOT_NAMED 1928-04-21 15:00:00 NR -22.1012 149.890 main 15 0 ______P_______ -1 -22.1012 149.890 3 146
1928110S21154 1928 28 SP EA NOT_NAMED 1928-04-21 18:00:00 NR -22.2182 149.988 main 0 0 ______P_______ -1 -22.2182 149.988 3 139
1928110S21154 1928 28 SP EA NOT_NAMED 1928-04-21 21:00:00 NR -22.3299 150.108 main 0 0 ______P_______ -1 -22.3299 150.108 3 133
1928110S21154 1928 28 SP EA NOT_NAMED 1928-04-21 23:00:00 NR -22.4000 150.200 bom main 0 0 ______O_______ -1 -22.4000 150.200 3 128
1928110S21154 1928 28 SP EA NOT_NAMED 1928-04-22 00:00:00 NR -22.4335 150.249 main 0 0 ______P_______ -1 -22.4335 150.249 3 124
1928110S21154 1928 28 SP EA NOT_NAMED 1928-04-22 03:00:00 NR -22.5278 150.411 main 10 0 ______P_______ -1 -22.5278 150.411 4 120
1928110S21154 1928 28 SP EA NOT_NAMED 1928-04-22 06:00:00 NR -22.6137 150.589 main 0 0 ______P_______ -1 -22.6137 150.589 4 116
1928110S21154 1928 28 SP EA NOT_NAMED 1928-04-22 09:00:00 NR -22.6924 150.782 main 0 0 ______P_______ -1 -22.6924 150.782 4 112
1928110S21154 1928 28 SP EA NOT_NAMED 1928-04-22 12:00:00 NR -22.7652 150.986 main 20 20 ______P_______ -1 -22.7652 150.986 4 110
1928110S21154 1928 28 SP EA NOT_NAMED 1928-04-22 15:00:00 NR -22.8331 151.201 main 40 40 ______P_______ -1 -22.8331 151.201 4 108
1928110S21154 1928 28 SP EA NOT_NAMED 1928-04-22 18:00:00 NR -22.8975 151.422 main 61 61 ______P_______ -1 -22.8975 151.422 4 107
1928110S21154 1928 28 SP EA NOT_NAMED 1928-04-22 21:00:00 NR -22.9594 151.648 main 82 82 ______P_______ -1 -22.9594 151.648 4 106
1928110S21154 1928 28 SP EA NOT_NAMED 1928-04-22 23:00:00 NR -23.0000 151.800 bom main 102 ______O_______ -1 -23.0000 151.800 4 107

デジタル台風データ・検索

IBTrACS Databaseについて

本データベースは、米国NOAAが公開する1842年以降の世界の熱帯低気圧のベストトラックデータアーカイブInternational Best Track Archive for Climate Stewardship (IBTrACS)を、ウェブで閲覧しやすい形式に変換したものです。

最終更新日:2021-11-26